Weather at Bowling Green Warren County Regional Airport

Public forecast

Using degrees Fahrenheit for public forecast. Weather courtesy of forecast.io.

Current aviation weather report (METAR) for Bowling Green Warren County Regional Airport

Retrieved 2020/09/29 18:53 UTC (26 minutes ago):

KBWG 291853Z AUTO VRB04KT 10SM SCT044 BKN085 20/09 A2993 RMK AO2 SLP131 T02000094

Aviation forecast (TAF) for Bowling Green Warren County Regional Airport

Retrieved 2020/09/29 18:27 UTC (52 minutes ago):

TAF KBWG 291725Z 2918/3018 28007KT P6SM SCT030 TEMPO 2919/2923 -SHRA BKN035 FM300300 25003KT P6SM SCT040 FM301400 22014G24KT P6SM SKC